Time;durP1;ratioP1;P1;durP2;ratioP2;P2;SDS_P1;SDS_P2;PMS_P1;PMS_P2;Temp;Humidity;BMP_temperature;BMP_pressure;BME280_temperature;BME280_humidity;BME280_pressure;Samples;Min_cycle;Max_cycle;Signal;HPM_P1;HPM_P2
2023/12/20 00:01:51;;;;;;;9.23;2.60;;;8.10;99.90;;;;;;5013413;28;20570;-85
2023/12/20 00:04:16;;;;;;;6.77;2.37;;;8.10;99.90;;;;;;5012716;28;20651;-83
2023/12/20 00:06:42;;;;;;;8.73;2.50;;;8.00;99.90;;;;;;5013365;28;20265;-85
2023/12/20 00:09:07;;;;;;;5.87;1.83;;;8.00;99.90;;;;;;5013310;28;20595;-82
2023/12/20 00:11:33;;;;;;;9.23;2.57;;;8.00;99.90;;;;;;5012481;28;20183;-83
2023/12/20 00:13:59;;;;;;;12.87;3.27;;;7.90;99.90;;;;;;5013165;28;20540;-84
2023/12/20 00:16:24;;;;;;;10.60;2.93;;;7.90;99.90;;;;;;5012727;28;20557;-83
2023/12/20 00:18:50;;;;;;;9.17;2.50;;;7.90;99.90;;;;;;5011915;28;20693;-83
2023/12/20 00:21:25;;;;;;;6.63;2.67;;;8.00;99.90;;;;;;5012100;28;20186;-83
2023/12/20 00:23:50;;;;;;;9.07;2.60;;;8.00;99.90;;;;;;5014431;28;20637;-83
2023/12/20 00:26:16;;;;;;;10.07;2.97;;;7.90;99.90;;;;;;5012481;28;20194;-82
2023/12/20 00:28:42;;;;;;;5.93;2.33;;;7.90;99.90;;;;;;5011916;28;20654;-83
2023/12/20 00:31:08;;;;;;;7.93;2.53;;;7.80;99.90;;;;;;5012565;28;20393;-83
2023/12/20 00:33:34;;;;;;;10.53;2.50;;;7.70;99.90;;;;;;5011821;28;20304;-83
2023/12/20 00:35:59;;;;;;;11.63;2.73;;;7.80;99.90;;;;;;5012685;28;20217;-83
2023/12/20 00:38:25;;;;;;;8.73;2.63;;;7.90;99.90;;;;;;5011470;28;20638;-84
2023/12/20 00:40:51;;;;;;;9.37;2.93;;;7.90;99.90;;;;;;5012955;28;20716;-84
2023/12/20 00:43:16;;;;;;;11.37;2.87;;;8.00;99.90;;;;;;5012236;28;20198;-83
2023/12/20 00:45:42;;;;;;;11.10;2.90;;;8.10;99.90;;;;;;5012709;28;20256;-84
2023/12/20 00:48:08;;;;;;;9.40;3.00;;;7.90;99.90;;;;;;5012410;28;20213;-83
2023/12/20 00:50:34;;;;;;;12.73;2.80;;;7.80;99.90;;;;;;5012206;28;20185;-85
2023/12/20 00:52:59;;;;;;;12.90;3.37;;;7.80;99.90;;;;;;5011954;28;20186;-83
2023/12/20 00:55:25;;;;;;;10.60;3.20;;;7.70;99.90;;;;;;5012523;28;20198;-83
2023/12/20 00:57:51;;;;;;;11.37;3.87;;;7.70;99.90;;;;;;5012261;28;20689;-83
2023/12/20 01:00:17;;;;;;;9.07;3.10;;;7.70;99.90;;;;;;5012684;28;20170;-83
2023/12/20 01:02:42;;;;;;;13.47;3.50;;;7.70;99.90;;;;;;5011356;28;20178;-83
2023/12/20 01:05:09;;;;;;;10.10;3.37;;;7.60;99.90;;;;;;5012569;28;20193;-83
2023/12/20 01:07:35;;;;;;;8.70;3.10;;;7.60;99.90;;;;;;5011659;28;20212;-82
2023/12/20 01:10:00;;;;;;;11.70;3.57;;;7.50;99.90;;;;;;5011198;28;20284;-84
2023/12/20 01:12:26;;;;;;;12.07;3.40;;;7.50;99.90;;;;;;5011707;28;20236;-84
2023/12/20 01:14:52;;;;;;;10.20;3.53;;;7.50;99.90;;;;;;5012378;28;20179;-83
2023/12/20 01:17:18;;;;;;;10.73;3.47;;;7.50;99.90;;;;;;5012048;28;20248;-83
2023/12/20 01:19:43;;;;;;;12.93;3.53;;;7.50;99.90;;;;;;5011417;28;20265;-84
2023/12/20 01:22:09;;;;;;;10.50;4.00;;;7.40;99.90;;;;;;5010845;28;20635;-83
2023/12/20 01:24:34;;;;;;;13.33;3.47;;;7.50;99.90;;;;;;5012031;28;20685;-84
2023/12/20 01:27:00;;;;;;;12.77;3.63;;;7.60;99.90;;;;;;5011863;28;20200;-84
2023/12/20 01:29:26;;;;;;;10.73;3.50;;;7.50;99.90;;;;;;5011446;28;20645;-83
2023/12/20 01:31:51;;;;;;;10.73;3.37;;;7.50;99.90;;;;;;5012225;28;20178;-85
2023/12/20 01:34:17;;;;;;;13.07;3.47;;;7.50;99.90;;;;;;5011265;28;20635;-82
2023/12/20 01:36:43;;;;;;;15.17;3.80;;;7.60;99.90;;;;;;5012068;28;20224;-84
2023/12/20 01:39:09;;;;;;;7.43;3.17;;;7.50;99.90;;;;;;5010955;28;20179;-84
2023/12/20 01:41:34;;;;;;;10.57;3.40;;;7.60;99.90;;;;;;5012096;28;20182;-84
2023/12/20 01:44:00;;;;;;;13.23;4.30;;;7.50;99.90;;;;;;5011950;28;20174;-84
2023/12/20 01:46:26;;;;;;;9.80;2.63;;;7.50;99.90;;;;;;5010822;28;20174;-84
2023/12/20 01:48:52;;;;;;;13.43;3.90;;;7.40;99.90;;;;;;5012082;28;20201;-83
2023/12/20 01:51:19;;;;;;;8.17;3.63;;;7.50;99.90;;;;;;5014702;28;20204;-84
2023/12/20 01:53:45;;;;;;;9.67;3.43;;;7.50;99.90;;;;;;5015700;28;20245;-85
2023/12/20 01:56:11;;;;;;;10.33;4.07;;;7.50;99.90;;;;;;5015665;28;20245;-83
2023/12/20 01:58:44;;;;;;;12.00;3.23;;;7.40;99.90;;;;;;5015405;28;20209;-83
2023/12/20 02:01:13;;;;;;;12.53;4.30;;;7.40;99.90;;;;;;5013963;28;20189;-84
2023/12/20 02:03:42;;;;;;;9.53;3.40;;;7.40;99.90;;;;;;5015405;28;20173;-83
2023/12/20 02:06:09;;;;;;;15.43;3.70;;;7.40;99.90;;;;;;5014402;28;20261;-83
2023/12/20 02:08:35;;;;;;;11.53;4.30;;;7.40;99.90;;;;;;5014344;28;20170;-83
2023/12/20 02:11:01;;;;;;;15.13;4.07;;;7.40;99.90;;;;;;5014584;28;20273;-84
2023/12/20 02:13:27;;;;;;;11.57;3.40;;;7.40;99.90;;;;;;5015819;28;20205;-83
2023/12/20 02:15:54;;;;;;;10.97;4.00;;;7.50;99.90;;;;;;5014509;28;20681;-83
2023/12/20 02:18:20;;;;;;;10.93;3.70;;;7.40;99.90;;;;;;5015120;28;20174;-83
2023/12/20 02:20:45;;;;;;;11.30;3.73;;;7.30;99.90;;;;;;5014708;28;20646;-84
2023/12/20 02:23:14;;;;;;;12.83;4.33;;;7.30;99.90;;;;;;5030193;28;20185;-85
2023/12/20 02:25:39;;;;;;;14.67;4.13;;;7.20;99.90;;;;;;5033747;28;20580;-84
2023/12/20 02:28:06;;;;;;;13.60;4.40;;;7.20;99.90;;;;;;5033886;28;20178;-84
2023/12/20 02:30:32;;;;;;;16.00;3.83;;;7.30;99.90;;;;;;5034884;28;20256;-83
2023/12/20 02:33:00;;;;;;;15.80;3.97;;;7.20;99.90;;;;;;5034332;28;20392;-84
2023/12/20 02:35:26;;;;;;;9.93;3.93;;;7.10;99.90;;;;;;5033824;28;20283;-83
2023/12/20 02:37:52;;;;;;;13.07;4.43;;;7.10;99.90;;;;;;5034134;28;20328;-83
2023/12/20 02:40:17;;;;;;;13.70;4.80;;;7.10;99.90;;;;;;5033633;28;20264;-84
2023/12/20 02:42:43;;;;;;;16.70;4.73;;;7.10;99.90;;;;;;5036352;28;20252;-83
2023/12/20 02:45:09;;;;;;;11.73;4.37;;;7.10;99.90;;;;;;5034036;28;20170;-84
2023/12/20 02:47:34;;;;;;;13.57;3.67;;;7.10;99.90;;;;;;5036109;28;20214;-83
2023/12/20 02:50:00;;;;;;;11.80;4.33;;;7.00;99.90;;;;;;5034144;28;20679;-83
2023/12/20 02:52:28;;;;;;;16.80;4.33;;;7.10;99.90;;;;;;5033951;28;20231;-84
2023/12/20 02:54:54;;;;;;;11.77;3.80;;;7.00;99.90;;;;;;5033895;28;20591;-84
2023/12/20 02:57:20;;;;;;;11.80;4.60;;;6.90;99.90;;;;;;5034498;28;20276;-83
2023/12/20 02:59:45;;;;;;;14.17;4.70;;;7.00;99.90;;;;;;5034408;28;20212;-83
2023/12/20 03:02:11;;;;;;;12.90;4.17;;;7.10;99.90;;;;;;5032618;28;20174;-83
2023/12/20 03:04:36;;;;;;;11.77;4.50;;;7.10;99.90;;;;;;5034344;28;20772;-83
2023/12/20 03:07:02;;;;;;;10.23;4.47;;;7.00;99.90;;;;;;5033953;28;20276;-83
2023/12/20 03:09:28;;;;;;;10.30;4.83;;;7.10;99.90;;;;;;5032465;28;20224;-83
2023/12/20 03:11:53;;;;;;;16.87;5.37;;;7.10;99.90;;;;;;5034068;28;20645;-83
2023/12/20 03:14:19;;;;;;;14.70;4.77;;;7.10;99.90;;;;;;5033478;28;20173;-83
2023/12/20 03:16:50;;;;;;;11.00;3.90;;;7.10;99.90;;;;;;5034046;28;20593;-82
2023/12/20 03:19:16;;;;;;;11.27;3.87;;;7.00;99.90;;;;;;5034059;28;20690;-84
2023/12/20 03:21:42;;;;;;;12.33;4.23;;;7.00;99.90;;;;;;5032674;28;20215;-84
2023/12/20 03:24:08;;;;;;;11.57;4.07;;;7.10;99.90;;;;;;5032947;28;20221;-83
2023/12/20 03:26:33;;;;;;;13.27;4.07;;;7.10;99.90;;;;;;5033993;28;20268;-83
2023/12/20 03:28:59;;;;;;;10.03;4.00;;;7.10;99.90;;;;;;5032663;28;20708;-82
2023/12/20 03:31:24;;;;;;;14.90;3.80;;;7.10;99.90;;;;;;5033992;28;20231;-83
2023/12/20 03:33:52;;;;;;;13.70;4.33;;;7.10;99.90;;;;;;5034289;28;20173;-82
2023/12/20 03:36:17;;;;;;;14.07;4.60;;;7.20;99.90;;;;;;5033318;28;20205;-83
2023/12/20 03:38:43;;;;;;;11.87;4.10;;;7.30;99.90;;;;;;5033722;28;20170;-83
2023/12/20 03:41:09;;;;;;;10.90;4.00;;;7.40;99.90;;;;;;5033669;28;20178;-84
2023/12/20 03:43:34;;;;;;;13.60;4.60;;;7.30;99.90;;;;;;5033779;28;20174;-84
2023/12/20 03:46:00;;;;;;;15.20;4.33;;;7.20;99.90;;;;;;5033350;28;20626;-83
2023/12/20 03:48:26;;;;;;;13.60;5.13;;;7.20;99.90;;;;;;5033359;28;20174;-85
2023/12/20 03:50:51;;;;;;;10.93;3.97;;;7.30;99.90;;;;;;5032554;28;20186;-83
2023/12/20 03:53:17;;;;;;;12.23;4.63;;;7.30;99.90;;;;;;5033408;28;20178;-82
2023/12/20 03:55:43;;;;;;;11.97;4.10;;;7.40;99.90;;;;;;5033944;28;20711;-83
2023/12/20 03:58:09;;;;;;;18.50;4.23;;;7.30;99.90;;;;;;5032937;28;20279;-82
2023/12/20 04:00:35;;;;;;;11.50;4.33;;;7.30;99.90;;;;;;5033351;28;20637;-82
2023/12/20 04:03:03;;;;;;;14.53;4.00;;;7.40;99.90;;;;;;5033378;28;20684;-84
2023/12/20 04:05:29;;;;;;;14.07;4.50;;;7.40;99.90;;;;;;5033067;28;20530;-84
2023/12/20 04:07:54;;;;;;;18.80;4.43;;;7.40;99.90;;;;;;5033687;28;20231;-83
2023/12/20 04:10:20;;;;;;;12.40;4.03;;;7.40;99.90;;;;;;5033016;28;20189;-83
2023/12/20 04:12:45;;;;;;;12.20;4.37;;;7.40;99.90;;;;;;5031978;28;20522;-82
2023/12/20 04:15:11;;;;;;;13.43;4.83;;;7.30;99.90;;;;;;5032732;28;20550;-84
2023/12/20 04:17:37;;;;;;;11.90;4.23;;;7.30;99.90;;;;;;5032336;28;20189;-82
2023/12/20 04:20:04;;;;;;;14.90;4.30;;;7.30;99.90;;;;;;5032957;28;20170;-83
2023/12/20 04:22:29;;;;;;;18.47;4.67;;;7.30;99.90;;;;;;5032888;28;20188;-82
2023/12/20 04:24:55;;;;;;;12.77;3.73;;;7.40;99.90;;;;;;5033280;28;20560;-83
2023/12/20 04:27:21;;;;;;;11.20;4.00;;;7.30;99.90;;;;;;5033126;28;20217;-81
2023/12/20 04:29:46;;;;;;;11.33;4.13;;;7.30;99.90;;;;;;5032599;28;20629;-84
2023/12/20 04:32:12;;;;;;;11.67;4.10;;;7.30;99.90;;;;;;5033188;28;20188;-81
2023/12/20 04:34:38;;;;;;;14.03;4.57;;;7.20;99.90;;;;;;5032660;28;20178;-84
2023/12/20 04:37:06;;;;;;;15.07;4.70;;;7.30;99.90;;;;;;5031862;28;20237;-84
2023/12/20 04:39:33;;;;;;;14.07;4.63;;;7.30;99.90;;;;;;5033071;28;20177;-83
2023/12/20 04:41:58;;;;;;;11.73;3.67;;;7.30;99.90;;;;;;5032392;28;20236;-84
2023/12/20 04:44:24;;;;;;;18.00;3.77;;;7.30;99.90;;;;;;5032372;28;20174;-82
2023/12/20 04:46:56;;;;;;;12.13;3.60;;;7.20;99.90;;;;;;5032248;28;20227;-84
2023/12/20 04:49:22;;;;;;;13.83;4.43;;;7.20;99.90;;;;;;5030755;28;20169;-83
2023/12/20 04:51:47;;;;;;;9.03;3.87;;;7.10;99.90;;;;;;5032242;28;20170;-84
2023/12/20 04:54:13;;;;;;;10.57;3.97;;;7.10;99.90;;;;;;5032138;28;20177;-84
2023/12/20 04:56:39;;;;;;;13.00;4.00;;;7.20;99.90;;;;;;5031679;28;20240;-82
2023/12/20 04:59:05;;;;;;;11.57;4.03;;;7.10;99.90;;;;;;5036620;28;20192;-83
2023/12/20 05:01:34;;;;;;;11.50;4.10;;;7.20;99.90;;;;;;5050234;28;20253;-83
2023/12/20 05:03:59;;;;;;;12.77;3.70;;;7.20;99.90;;;;;;5034119;28;20181;-83
2023/12/20 05:06:25;;;;;;;13.33;3.67;;;7.10;99.90;;;;;;5031411;28;20185;-83
2023/12/20 05:08:51;;;;;;;11.97;3.90;;;6.90;99.90;;;;;;5030811;28;20177;-84
2023/12/20 05:11:16;;;;;;;14.83;4.63;;;7.10;99.90;;;;;;5031842;28;20201;-84
2023/12/20 05:13:42;;;;;;;11.13;4.30;;;7.20;99.90;;;;;;5031777;28;20173;-83
2023/12/20 05:16:09;;;;;;;12.17;3.83;;;7.20;99.90;;;;;;5031892;28;20213;-84
2023/12/20 05:18:34;;;;;;;13.20;3.50;;;7.40;99.90;;;;;;5030483;28;20726;-84
2023/12/20 05:21:00;;;;;;;10.63;4.00;;;7.30;99.90;;;;;;5031274;28;20217;-84
2023/12/20 05:23:26;;;;;;;12.80;4.87;;;7.30;99.90;;;;;;5031764;28;20177;-85
2023/12/20 05:25:52;;;;;;;9.93;3.90;;;7.20;99.90;;;;;;5031106;28;20562;-84
2023/12/20 05:28:18;;;;;;;11.77;3.63;;;7.20;99.90;;;;;;5030685;28;20174;-85
2023/12/20 05:30:43;;;;;;;11.33;4.57;;;7.20;99.90;;;;;;5031826;28;20213;-86
2023/12/20 05:33:09;;;;;;;9.57;4.03;;;7.20;99.90;;;;;;5031744;28;20178;-84
2023/12/20 05:35:35;;;;;;;11.33;4.33;;;7.00;99.90;;;;;;5031959;28;20680;-84
2023/12/20 05:38:00;;;;;;;11.27;3.90;;;7.00;99.90;;;;;;5030934;28;20174;-84
2023/12/20 05:40:26;;;;;;;9.70;4.10;;;7.00;99.90;;;;;;5031618;28;20660;-84
2023/12/20 05:42:52;;;;;;;14.10;4.20;;;6.90;99.90;;;;;;5031141;28;20688;-84
2023/12/20 05:45:17;;;;;;;10.50;3.47;;;6.70;99.90;;;;;;5031178;28;20170;-82
2023/12/20 05:47:43;;;;;;;14.17;3.80;;;6.80;99.90;;;;;;5031304;28;20552;-84
2023/12/20 05:50:09;;;;;;;12.30;4.23;;;6.80;99.90;;;;;;5031341;28;20201;-84
2023/12/20 05:52:34;;;;;;;12.87;3.77;;;6.80;99.90;;;;;;5031074;28;20190;-83
2023/12/20 05:55:03;;;;;;;12.97;3.87;;;6.80;99.90;;;;;;5031398;28;20177;-84
2023/12/20 05:57:28;;;;;;;11.20;3.23;;;6.80;99.90;;;;;;5030332;28;20178;-85
2023/12/20 05:59:54;;;;;;;13.37;4.10;;;6.80;99.90;;;;;;5030076;28;20227;-84
2023/12/20 06:02:20;;;;;;;10.50;3.83;;;6.80;99.90;;;;;;5030871;28;20178;-83
2023/12/20 06:04:45;;;;;;;14.20;4.23;;;6.70;99.90;;;;;;5030177;28;20590;-83
2023/12/20 06:07:15;;;;;;;14.07;3.97;;;6.80;99.90;;;;;;5030950;28;20223;-83
2023/12/20 06:09:40;;;;;;;12.90;3.73;;;6.70;99.90;;;;;;5030053;28;20211;-84
2023/12/20 06:12:08;;;;;;;13.47;4.07;;;6.60;99.90;;;;;;5031063;28;20170;-83
2023/12/20 06:14:33;;;;;;;12.23;3.90;;;6.60;99.90;;;;;;5031113;28;20240;-83
2023/12/20 06:17:01;;;;;;;10.33;3.60;;;6.60;99.90;;;;;;5030851;28;20217;-83
2023/12/20 06:19:26;;;;;;;11.60;3.83;;;6.60;99.90;;;;;;5029752;28;20710;-85
2023/12/20 06:21:52;;;;;;;10.27;3.43;;;6.70;99.90;;;;;;5031176;28;20276;-83
2023/12/20 06:24:18;;;;;;;9.70;3.40;;;6.60;99.90;;;;;;5030330;28;20193;-83
2023/12/20 06:26:43;;;;;;;14.33;4.23;;;6.60;99.90;;;;;;5032203;28;20170;-83
2023/12/20 06:29:09;;;;;;;11.00;3.73;;;6.60;99.90;;;;;;5030118;28;20185;-84
2023/12/20 06:31:35;;;;;;;13.33;3.50;;;6.60;99.90;;;;;;5030858;28;20174;-84
2023/12/20 06:34:01;;;;;;;14.00;3.80;;;6.70;99.90;;;;;;5031100;28;20268;-84
2023/12/20 06:36:27;;;;;;;13.50;3.50;;;6.70;99.90;;;;;;5031328;28;20209;-82
2023/12/20 06:38:53;;;;;;;13.33;4.37;;;6.60;99.90;;;;;;5033875;28;20169;-84
2023/12/20 06:41:19;;;;;;;12.30;4.97;;;6.60;99.90;;;;;;5031635;28;20183;-81
2023/12/20 06:43:44;;;;;;;19.10;4.10;;;6.70;99.90;;;;;;5044668;28;20200;-82
2023/12/20 06:46:11;;;;;;;10.67;3.83;;;6.70;99.90;;;;;;5037704;28;20170;-84
2023/12/20 06:48:37;;;;;;;11.20;3.60;;;6.70;99.90;;;;;;5034219;28;20603;-83
2023/12/20 06:51:02;;;;;;;7.33;3.27;;;6.60;99.90;;;;;;5033149;28;20276;-83
2023/12/20 06:53:28;;;;;;;11.90;3.30;;;6.60;99.90;;;;;;5034036;28;20173;-82
2023/12/20 06:55:56;;;;;;;14.53;3.57;;;6.60;99.90;;;;;;5033899;28;20620;-84
2023/12/20 06:58:22;;;;;;;9.57;3.90;;;6.60;99.90;;;;;;5034211;28;20180;-84
2023/12/20 07:00:47;;;;;;;12.37;3.77;;;6.60;99.90;;;;;;5034041;28;20170;-81
2023/12/20 07:03:13;;;;;;;10.20;3.40;;;6.60;99.90;;;;;;5033427;28;20586;-84
2023/12/20 07:05:40;;;;;;;10.03;3.00;;;6.40;99.90;;;;;;5021615;28;20634;-83
2023/12/20 07:08:06;;;;;;;9.47;3.00;;;6.40;99.90;;;;;;5029819;28;20504;-84
2023/12/20 07:10:32;;;;;;;13.83;4.20;;;6.40;99.90;;;;;;5032917;28;20185;-84
2023/12/20 07:12:58;;;;;;;9.47;3.37;;;6.50;99.90;;;;;;5033833;28;20404;-84
2023/12/20 07:15:23;;;;;;;11.33;3.97;;;6.50;99.90;;;;;;5015936;28;20194;-84
2023/12/20 07:17:49;;;;;;;13.60;4.70;;;6.40;99.90;;;;;;5012801;28;20182;-83
2023/12/20 07:20:15;;;;;;;12.40;3.70;;;6.40;99.90;;;;;;5013637;28;20182;-86
2023/12/20 07:22:41;;;;;;;15.57;4.43;;;6.30;99.90;;;;;;5014595;28;20305;-85
2023/12/20 07:25:07;;;;;;;14.83;3.93;;;6.30;99.90;;;;;;5031559;28;20186;-84
2023/12/20 07:27:33;;;;;;;11.27;3.63;;;6.20;99.90;;;;;;5036993;28;20697;-84
2023/12/20 07:29:58;;;;;;;11.50;3.60;;;6.30;99.90;;;;;;5046945;28;20269;-83
2023/12/20 07:32:24;;;;;;;13.27;3.50;;;6.20;99.90;;;;;;5039187;28;20173;-84
2023/12/20 07:34:50;;;;;;;10.13;3.50;;;6.10;99.90;;;;;;5044584;28;20629;-85
2023/12/20 07:37:16;;;;;;;12.67;3.73;;;6.10;99.90;;;;;;5044620;28;20208;-82
2023/12/20 07:39:42;;;;;;;12.30;3.87;;;6.00;99.90;;;;;;5034506;28;20174;-83
2023/12/20 07:42:08;;;;;;;8.40;3.53;;;6.00;99.90;;;;;;5031914;28;20174;-84
2023/12/20 07:44:35;;;;;;;10.83;2.97;;;6.00;99.90;;;;;;5033020;28;20192;-83
2023/12/20 07:47:02;;;;;;;10.83;3.27;;;6.00;99.90;;;;;;5021584;28;20174;-84
2023/12/20 07:49:28;;;;;;;11.50;3.30;;;5.90;99.90;;;;;;5022052;28;20638;-84
2023/12/20 07:51:53;;;;;;;7.60;3.00;;;5.90;99.90;;;;;;5014984;28;20210;-85
2023/12/20 07:54:19;;;;;;;10.70;3.13;;;6.00;99.90;;;;;;5018828;28;20200;-83
2023/12/20 07:56:46;;;;;;;16.73;4.17;;;6.00;99.90;;;;;;5023648;28;20683;-85
2023/12/20 07:59:12;;;;;;;10.53;3.63;;;6.00;99.90;;;;;;5029943;28;20174;-85
2023/12/20 08:01:38;;;;;;;10.83;3.70;;;6.10;99.90;;;;;;5025366;28;20236;-85
2023/12/20 08:04:04;;;;;;;16.07;3.70;;;6.10;99.90;;;;;;5029384;28;20178;-86
2023/12/20 08:06:29;;;;;;;14.97;4.47;;;6.10;99.90;;;;;;5030045;28;20197;-84
2023/12/20 08:08:55;;;;;;;12.77;3.63;;;6.00;99.90;;;;;;5028085;28;20285;-85
2023/12/20 08:11:21;;;;;;;15.97;4.40;;;6.10;99.90;;;;;;5021474;28;20178;-84
2023/12/20 08:13:46;;;;;;;15.90;4.03;;;6.10;99.90;;;;;;5026215;28;20190;-85
2023/12/20 08:16:17;;;;;;;13.20;3.50;;;6.10;99.90;;;;;;5019469;28;20212;-84
2023/12/20 08:18:43;;;;;;;11.70;3.93;;;6.20;99.90;;;;;;5032417;28;20205;-85
2023/12/20 08:21:08;;;;;;;10.50;3.23;;;6.30;99.90;;;;;;5019714;28;20182;-87
2023/12/20 08:23:35;;;;;;;13.83;3.67;;;6.50;99.90;;;;;;5022417;28;20182;-86
2023/12/20 08:26:08;;;;;;;9.13;4.27;;;6.40;99.90;;;;;;5024846;28;20685;-86
2023/12/20 08:28:34;;;;;;;12.93;3.90;;;6.50;99.90;;;;;;5018301;28;20234;-89
2023/12/20 08:31:00;;;;;;;11.80;3.63;;;6.50;99.90;;;;;;5032237;28;20197;-86
2023/12/20 08:33:25;;;;;;;12.77;3.80;;;6.60;99.90;;;;;;5042287;28;20235;-85
2023/12/20 08:35:51;;;;;;;16.23;3.67;;;6.60;99.90;;;;;;5033090;28;20617;-86
2023/12/20 08:38:17;;;;;;;13.83;4.43;;;6.50;99.90;;;;;;5033109;28;20786;-85
2023/12/20 08:40:43;;;;;;;13.67;4.40;;;6.50;99.90;;;;;;5027698;28;20188;-85
2023/12/20 08:43:09;;;;;;;15.27;3.90;;;6.50;99.90;;;;;;5033048;28;20209;-85
2023/12/20 08:45:35;;;;;;;13.03;3.80;;;6.60;99.90;;;;;;5032713;28;20216;-85
2023/12/20 08:48:01;;;;;;;15.90;3.93;;;6.50;99.90;;;;;;5032125;28;20598;-86
2023/12/20 08:50:26;;;;;;;11.77;3.57;;;6.60;99.90;;;;;;5032476;28;20185;-86
2023/12/20 08:52:52;;;;;;;12.83;3.50;;;6.60;99.90;;;;;;5028738;28;20335;-85
2023/12/20 08:55:19;;;;;;;12.13;4.47;;;6.60;99.90;;;;;;5032214;28;20625;-85
2023/12/20 08:57:45;;;;;;;11.50;3.07;;;6.50;99.90;;;;;;5031881;28;20190;-86
2023/12/20 09:00:11;;;;;;;13.23;3.30;;;6.50;99.90;;;;;;5025020;28;20182;-86
2023/12/20 09:02:37;;;;;;;11.17;3.50;;;6.50;99.90;;;;;;5048934;28;20193;-86
2023/12/20 09:05:03;;;;;;;12.17;3.87;;;6.60;99.90;;;;;;5017446;28;20178;-86
2023/12/20 09:07:31;;;;;;;10.63;3.30;;;6.50;99.90;;;;;;5012707;28;20193;-86
2023/12/20 09:09:57;;;;;;;11.03;4.10;;;6.50;99.90;;;;;;5030753;28;20185;-86
2023/12/20 09:12:23;;;;;;;16.30;5.07;;;6.60;99.90;;;;;;5032580;28;20178;-86
2023/12/20 09:14:50;;;;;;;12.83;3.63;;;6.70;99.90;;;;;;5033777;28;20184;-85
2023/12/20 09:17:17;;;;;;;12.63;3.60;;;6.70;99.90;;;;;;5015643;28;20245;-85
2023/12/20 09:19:46;;;;;;;18.03;3.20;;;6.80;99.90;;;;;;5013889;28;20187;-84
2023/12/20 09:22:12;;;;;;;13.97;4.07;;;6.90;99.90;;;;;;5013566;28;20190;-83
2023/12/20 09:24:41;;;;;;;12.13;3.57;;;6.90;99.90;;;;;;5023764;28;20553;-84
2023/12/20 09:27:07;;;;;;;12.40;3.60;;;7.00;99.90;;;;;;5031999;28;20208;-84
2023/12/20 09:29:33;;;;;;;11.60;3.60;;;7.10;99.90;;;;;;5031631;28;20652;-85
2023/12/20 09:31:58;;;;;;;12.33;4.10;;;7.10;99.90;;;;;;5031162;28;20203;-85
2023/12/20 09:34:25;;;;;;;13.23;3.93;;;7.10;99.90;;;;;;5013027;28;20201;-84
2023/12/20 09:36:51;;;;;;;11.97;3.73;;;7.20;99.90;;;;;;5032044;28;20205;-84
2023/12/20 09:39:19;;;;;;;14.73;3.70;;;7.10;99.90;;;;;;5033564;28;20291;-87
2023/12/20 09:41:51;;;;;;;12.73;3.60;;;7.20;99.90;;;;;;5016016;28;20548;-90
2023/12/20 09:44:19;;;;;;;13.17;3.53;;;7.20;99.90;;;;;;5012466;28;20182;-86
2023/12/20 09:46:49;;;;;;;9.03;3.27;;;7.30;99.90;;;;;;5014988;28;20192;-86
2023/12/20 09:49:18;;;;;;;17.40;4.27;;;7.30;99.90;;;;;;5018944;28;20656;-86
2023/12/20 09:51:46;;;;;;;12.23;5.00;;;7.30;99.90;;;;;;5018311;28;20265;-88
2023/12/20 09:54:19;;;;;;;14.23;4.23;;;7.40;99.90;;;;;;5025972;28;20182;-85
2023/12/20 09:56:45;;;;;;;17.30;4.33;;;7.40;99.90;;;;;;5012671;28;20213;-85
2023/12/20 09:59:12;;;;;;;14.37;3.60;;;7.50;99.90;;;;;;5020078;28;20550;-85
2023/12/20 10:01:40;;;;;;;15.57;4.27;;;7.60;99.90;;;;;;5032310;28;20234;-88
2023/12/20 10:04:10;;;;;;;13.53;3.30;;;7.60;99.90;;;;;;5029978;28;20174;-84
2023/12/20 10:06:36;;;;;;;12.43;3.43;;;7.60;99.90;;;;;;5016719;28;20553;-78
2023/12/20 10:09:02;;;;;;;9.80;3.30;;;7.80;99.90;;;;;;5015126;28;20173;-77
2023/12/20 10:11:28;;;;;;;11.70;4.00;;;7.70;99.90;;;;;;5021981;28;20177;-79
2023/12/20 10:14:02;;;;;;;12.80;3.30;;;7.90;99.90;;;;;;5028222;28;20178;-78
2023/12/20 10:16:28;;;;;;;18.13;3.93;;;8.00;99.90;;;;;;5029441;28;20235;-84
2023/12/20 10:18:54;;;;;;;13.07;3.47;;;7.90;99.90;;;;;;5036329;28;20257;-84
2023/12/20 10:21:22;;;;;;;11.67;3.70;;;7.80;99.90;;;;;;5034952;28;20252;-84
2023/12/20 10:23:49;;;;;;;13.77;3.90;;;7.90;99.90;;;;;;5054255;28;20532;-84
2023/12/20 10:26:22;;;;;;;14.57;3.37;;;7.80;99.90;;;;;;5054537;28;20653;-81
2023/12/20 10:28:53;;;;;;;15.60;5.10;;;7.80;99.90;;;;;;5027898;28;20631;-82
2023/12/20 10:31:33;;;;;;;10.93;3.60;;;7.70;99.90;;;;;;5023412;28;20177;-82
2023/12/20 10:34:01;;;;;;;16.57;6.67;;;7.80;99.90;;;;;;5024329;28;20608;-82
2023/12/20 10:36:31;;;;;;;15.60;5.27;;;7.90;99.90;;;;;;5022449;28;20226;-86
2023/12/20 10:38:58;;;;;;;13.20;4.33;;;7.90;99.90;;;;;;5021906;28;20169;-83
2023/12/20 10:41:32;;;;;;;12.77;3.40;;;8.00;99.90;;;;;;5026055;28;20474;-84
2023/12/20 10:44:04;;;;;;;13.83;3.97;;;8.00;99.90;;;;;;5029264;28;20663;-83
2023/12/20 10:46:32;;;;;;;15.93;3.87;;;8.10;99.90;;;;;;5024511;28;20220;-83
2023/12/20 10:48:59;;;;;;;13.03;3.30;;;8.10;99.90;;;;;;5024262;28;20612;-83
2023/12/20 10:51:26;;;;;;;13.20;3.17;;;8.10;99.90;;;;;;5023963;28;20178;-82
2023/12/20 10:53:55;;;;;;;10.40;3.70;;;8.10;99.90;;;;;;5022556;28;20265;-82
2023/12/20 10:56:23;;;;;;;12.90;3.67;;;8.20;99.90;;;;;;5022747;28;20194;-81
2023/12/20 10:58:49;;;;;;;11.47;3.30;;;8.20;99.90;;;;;;5022645;28;20634;-83
2023/12/20 11:01:17;;;;;;;11.97;4.20;;;8.30;99.90;;;;;;5024714;28;20181;-83
2023/12/20 11:03:48;;;;;;;12.73;3.77;;;8.40;99.90;;;;;;5023434;28;20170;-84
2023/12/20 11:06:27;;;;;;;9.20;3.50;;;8.40;99.90;;;;;;5022414;28;20276;-84
2023/12/20 11:09:12;;;;;;;10.97;3.13;;;8.30;99.90;;;;;;5022199;28;20213;-84
2023/12/20 11:11:46;;;;;;;13.13;4.37;;;8.40;99.90;;;;;;5023394;28;20170;-83
2023/12/20 11:14:22;;;;;;;12.73;3.40;;;8.30;99.90;;;;;;5023708;28;20271;-83
2023/12/20 11:16:47;;;;;;;13.17;3.50;;;8.40;99.90;;;;;;5021947;28;20332;-82
2023/12/20 11:19:13;;;;;;;17.43;4.10;;;8.40;99.90;;;;;;5013767;28;20170;-83
2023/12/20 11:21:40;;;;;;;12.70;4.90;;;8.40;99.90;;;;;;5014540;28;20230;-82
2023/12/20 11:24:06;;;;;;;17.07;4.23;;;8.50;99.90;;;;;;5013664;28;20198;-82
2023/12/20 11:26:31;;;;;;;10.47;3.50;;;8.60;99.90;;;;;;5015137;28;20170;-83
2023/12/20 11:29:32;;;;;;;16.10;3.80;;;8.60;99.90;;;;;;5014696;28;20174;-82
2023/12/20 11:32:00;;;;;;;14.33;3.57;;;8.60;99.90;;;;;;5014811;28;20257;-84
2023/12/20 11:34:32;;;;;;;12.10;3.80;;;8.60;99.90;;;;;;5013865;28;20196;-83
2023/12/20 11:36:59;;;;;;;12.00;3.57;;;8.50;99.90;;;;;;5013142;28;20214;-84
2023/12/20 11:39:27;;;;;;;10.50;3.60;;;8.50;99.90;;;;;;5014678;28;20170;-81
2023/12/20 11:41:56;;;;;;;12.73;3.70;;;8.50;99.90;;;;;;5016325;28;20205;-84
2023/12/20 11:44:22;;;;;;;11.83;4.17;;;8.60;99.90;;;;;;5017203;28;20166;-83
2023/12/20 11:46:48;;;;;;;14.70;5.27;;;8.60;99.90;;;;;;5016295;28;20232;-83
2023/12/20 11:49:13;;;;;;;12.47;3.47;;;8.70;99.90;;;;;;5013267;28;20530;-82
2023/12/20 11:51:43;;;;;;;11.10;4.10;;;8.60;99.90;;;;;;5013110;28;20223;-84
2023/12/20 11:54:10;;;;;;;14.67;6.60;;;8.70;99.90;;;;;;5014865;28;20170;-83
2023/12/20 11:56:36;;;;;;;10.87;3.50;;;8.70;99.90;;;;;;5012462;28;20214;-83
2023/12/20 11:59:02;;;;;;;9.10;3.87;;;8.70;99.90;;;;;;5013493;28;20250;-83
2023/12/20 12:01:32;;;;;;;12.40;6.33;;;8.70;99.90;;;;;;5016001;28;20654;-83
2023/12/20 12:04:14;;;;;;;12.07;4.63;;;8.70;99.90;;;;;;5023524;28;20185;-83
2023/12/20 12:06:50;;;;;;;14.13;4.60;;;8.70;99.90;;;;;;5019088;28;20610;-84
2023/12/20 12:09:17;;;;;;;14.53;4.80;;;8.80;99.90;;;;;;5021048;28;20904;-84
2023/12/20 12:11:43;;;;;;;13.70;4.57;;;8.70;99.90;;;;;;5015998;28;20178;-83
2023/12/20 12:14:21;;;;;;;12.33;6.13;;;8.80;99.90;;;;;;5017361;28;20179;-84
2023/12/20 12:16:46;;;;;;;12.80;4.37;;;8.90;99.90;;;;;;5013311;28;20232;-83
2023/12/20 12:19:25;;;;;;;11.63;3.67;;;9.00;99.90;;;;;;5012904;28;20631;-83
2023/12/20 12:22:16;;;;;;;11.63;3.57;;;9.00;99.90;;;;;;5012424;28;20281;-83
2023/12/20 12:24:43;;;;;;;13.57;3.80;;;9.00;99.90;;;;;;5013581;28;20200;-81
2023/12/20 12:27:10;;;;;;;15.93;4.00;;;9.10;99.90;;;;;;5012506;28;20253;-82
2023/12/20 12:29:36;;;;;;;14.47;3.80;;;9.10;99.90;;;;;;5012617;28;20316;-83
2023/12/20 12:32:08;;;;;;;13.30;3.73;;;9.20;99.90;;;;;;5013701;28;20207;-83
2023/12/20 12:34:35;;;;;;;15.20;4.57;;;9.30;99.90;;;;;;5011810;28;20181;-83
2023/12/20 12:37:01;;;;;;;13.27;3.70;;;9.30;99.90;;;;;;5012263;28;20238;-83
2023/12/20 12:39:29;;;;;;;9.37;3.00;;;9.30;99.90;;;;;;5012270;28;20178;-85
2023/12/20 12:41:56;;;;;;;9.97;2.90;;;9.30;99.90;;;;;;5012933;28;20182;-84
2023/12/20 12:44:23;;;;;;;14.80;3.90;;;9.20;99.90;;;;;;5012081;28;20252;-84
2023/12/20 12:46:53;;;;;;;13.50;3.70;;;9.20;99.90;;;;;;5012571;28;20244;-83